Time;durP1;ratioP1;P1;durP2;ratioP2;P2;SDS_P1;SDS_P2;PMS_P1;PMS_P2;Temp;Humidity;BMP_temperature;BMP_pressure;BME280_temperature;BME280_humidity;BME280_pressure;Samples;Min_cycle;Max_cycle;Signal;HPM_P1;HPM_P2
2020/12/04 00:02:22;;;;;;;6.90;6.15;;;9.40;90.60;;;;;;5063637;28;20609;-31
2020/12/04 00:04:53;;;;;;;6.15;5.65;;;9.30;90.90;;;;;;5070519;28;20197;-30
2020/12/04 00:07:23;;;;;;;6.85;5.40;;;9.40;91.80;;;;;;5068484;28;20219;-33
2020/12/04 00:09:53;;;;;;;6.65;6.15;;;9.40;91.00;;;;;;5076382;28;20187;-30
2020/12/04 00:12:24;;;;;;;6.72;6.00;;;9.40;91.40;;;;;;5073563;28;20229;-29
2020/12/04 00:14:54;;;;;;;7.18;6.38;;;9.30;90.90;;;;;;5069337;28;20200;-31
2020/12/04 00:17:26;;;;;;;6.80;6.20;;;9.20;91.80;;;;;;5069253;28;20560;-30
2020/12/04 00:19:56;;;;;;;5.90;5.38;;;9.20;93.80;;;;;;5070070;28;20213;-33
2020/12/04 00:22:26;;;;;;;6.45;4.75;;;9.30;93.10;;;;;;5053350;28;20193;-34
2020/12/04 00:24:56;;;;;;;6.20;5.40;;;9.20;93.80;;;;;;5047608;28;20213;-29
2020/12/04 00:27:27;;;;;;;5.22;4.82;;;9.40;95.40;;;;;;5074916;28;20195;-29
2020/12/04 00:29:57;;;;;;;5.75;5.25;;;9.30;92.40;;;;;;5066350;28;20193;-33
2020/12/04 00:32:29;;;;;;;6.30;5.00;;;9.20;93.30;;;;;;5059296;28;20196;-30
2020/12/04 00:34:59;;;;;;;5.80;5.20;;;9.10;92.30;;;;;;5069104;28;20212;-30
2020/12/04 00:37:29;;;;;;;8.20;5.85;;;9.20;92.30;;;;;;5068953;28;20193;-33
2020/12/04 00:40:00;;;;;;;6.95;6.25;;;9.20;92.20;;;;;;5068067;28;20722;-34
2020/12/04 00:42:30;;;;;;;8.10;5.72;;;9.20;91.90;;;;;;5077704;28;20229;-31
2020/12/04 00:45:00;;;;;;;6.15;5.45;;;9.10;92.10;;;;;;5082890;28;20189;-32
2020/12/04 00:47:32;;;;;;;5.68;5.03;;;9.00;92.90;;;;;;5065310;28;20507;-30
2020/12/04 00:50:02;;;;;;;5.80;5.30;;;9.10;91.70;;;;;;5057633;28;20186;-36
2020/12/04 00:52:32;;;;;;;7.22;6.55;;;9.10;91.90;;;;;;5070744;28;20209;-36
2020/12/04 00:55:02;;;;;;;7.05;5.95;;;9.10;92.80;;;;;;5059323;28;20200;-34
2020/12/04 00:57:33;;;;;;;6.50;6.00;;;9.10;93.60;;;;;;5080866;28;20204;-34
2020/12/04 01:00:04;;;;;;;6.97;5.68;;;9.00;92.70;;;;;;5058697;28;20224;-33
2020/12/04 01:02:35;;;;;;;6.45;5.85;;;9.00;92.30;;;;;;5067889;28;20527;-32
2020/12/04 01:05:07;;;;;;;6.07;5.57;;;9.00;93.20;;;;;;5074568;28;20193;-30
2020/12/04 01:07:37;;;;;;;5.97;5.50;;;9.00;94.30;;;;;;5068573;28;20642;-29
2020/12/04 01:10:08;;;;;;;10.65;6.85;;;8.90;94.30;;;;;;5079814;28;20186;-29
2020/12/04 01:12:42;;;;;;;6.22;5.63;;;8.80;93.70;;;;;;5063832;28;20222;-30
2020/12/04 01:15:12;;;;;;;6.00;5.40;;;8.70;93.50;;;;;;5066576;28;20219;-33
2020/12/04 01:17:44;;;;;;;6.75;6.15;;;8.70;93.20;;;;;;5086283;28;20187;-29
2020/12/04 01:20:14;;;;;;;7.72;6.13;;;8.50;93.50;;;;;;5074025;28;20213;-33
2020/12/04 01:22:44;;;;;;;7.32;6.60;;;8.50;93.80;;;;;;5071628;28;20185;-30
2020/12/04 01:25:15;;;;;;;6.78;6.07;;;8.40;94.10;;;;;;5071773;28;20225;-28
2020/12/04 01:27:45;;;;;;;7.50;6.80;;;8.40;94.50;;;;;;5088286;28;20189;-35
2020/12/04 01:30:16;;;;;;;7.22;6.53;;;8.40;94.20;;;;;;5068694;28;20196;-31
2020/12/04 01:32:48;;;;;;;7.50;6.65;;;8.30;94.50;;;;;;5071201;28;20186;-34
2020/12/04 01:35:18;;;;;;;8.23;6.60;;;8.20;94.50;;;;;;5071292;28;20193;-37
2020/12/04 01:37:48;;;;;;;6.40;5.80;;;8.20;94.70;;;;;;5091019;28;20240;-28
2020/12/04 01:40:21;;;;;;;7.35;6.40;;;8.20;94.50;;;;;;5091150;28;20217;-31
2020/12/04 01:42:51;;;;;;;8.90;6.70;;;8.20;94.40;;;;;;5070043;28;20229;-33
2020/12/04 01:45:21;;;;;;;7.20;6.03;;;8.30;95.10;;;;;;5081607;28;20197;-36
2020/12/04 01:47:54;;;;;;;5.85;5.35;;;8.30;95.00;;;;;;5073156;28;20630;-31
2020/12/04 01:50:26;;;;;;;6.53;5.93;;;8.30;95.20;;;;;;5076356;28;20270;-28
2020/12/04 01:52:56;;;;;;;7.10;6.40;;;8.30;95.00;;;;;;5080674;28;20284;-34
2020/12/04 01:55:27;;;;;;;6.57;5.97;;;8.40;94.90;;;;;;5072156;28;20189;-33
2020/12/04 01:57:57;;;;;;;7.53;6.65;;;8.50;94.40;;;;;;5079633;28;20189;-34
2020/12/04 02:00:27;;;;;;;8.10;6.13;;;8.50;94.60;;;;;;5084901;28;20285;-33
2020/12/04 02:02:59;;;;;;;7.20;6.45;;;8.40;94.90;;;;;;5090636;28;20291;-32
2020/12/04 02:05:29;;;;;;;8.60;6.10;;;8.30;95.20;;;;;;5087243;28;20196;-31
2020/12/04 02:08:10;;;;;;;7.13;6.40;;;8.30;95.10;;;;;;5071467;28;20186;-28
2020/12/04 02:10:50;;;;;;;8.52;7.50;;;8.40;95.00;;;;;;5069983;28;20197;-28
2020/12/04 02:13:21;;;;;;;7.80;7.00;;;8.50;95.30;;;;;;5083289;28;20189;-28
2020/12/04 02:15:52;;;;;;;12.05;8.05;;;8.40;96.20;;;;;;5090276;28;20249;-32
2020/12/04 02:18:23;;;;;;;8.18;7.03;;;8.40;96.30;;;;;;5090486;28;20199;-32
2020/12/04 02:21:01;;;;;;;9.05;7.65;;;8.40;96.30;;;;;;5078987;28;20217;-29
2020/12/04 02:23:32;;;;;;;6.60;6.00;;;8.20;97.90;;;;;;5075081;28;20194;-33
2020/12/04 02:26:04;;;;;;;8.10;7.35;;;8.20;97.10;;;;;;5091075;28;20193;-33
2020/12/04 02:28:35;;;;;;;8.90;8.00;;;8.30;99.30;;;;;;5081793;28;20247;-33
2020/12/04 02:31:07;;;;;;;8.23;7.38;;;8.30;99.90;;;;;;5084340;28;20238;-33
2020/12/04 02:33:37;;;;;;;8.43;7.60;;;8.30;98.70;;;;;;5089660;28;20246;-32
2020/12/04 02:36:10;;;;;;;9.55;7.00;;;8.20;98.90;;;;;;5070862;28;20249;-32
2020/12/04 02:38:40;;;;;;;8.15;7.15;;;8.10;99.90;;;;;;5078038;28;20709;-30
2020/12/04 02:41:11;;;;;;;8.52;7.72;;;8.00;99.90;;;;;;5078302;28;20217;-34
2020/12/04 02:43:41;;;;;;;11.05;8.90;;;8.00;99.90;;;;;;5087067;28;20278;-32
2020/12/04 02:46:11;;;;;;;13.82;11.27;;;7.90;99.90;;;;;;5086337;28;20637;-32
2020/12/04 02:48:42;;;;;;;12.85;11.55;;;7.80;99.90;;;;;;5077518;28;20295;-31
2020/12/04 02:51:14;;;;;;;13.13;11.65;;;7.80;99.90;;;;;;5077132;28;20636;-33
2020/12/04 02:53:44;;;;;;;12.85;11.63;;;7.60;99.90;;;;;;5067349;28;20709;-39
2020/12/04 02:56:18;;;;;;;11.73;10.55;;;7.50;99.90;;;;;;5075793;28;20656;-34
2020/12/04 02:58:48;;;;;;;11.77;10.68;;;7.50;99.90;;;;;;5064394;28;20243;-32
2020/12/04 03:01:19;;;;;;;12.43;11.23;;;7.40;99.90;;;;;;5066769;28;20236;-32
2020/12/04 03:03:49;;;;;;;11.25;10.15;;;7.30;99.90;;;;;;5085723;28;20246;-34
2020/12/04 03:06:20;;;;;;;13.02;11.80;;;7.20;99.90;;;;;;5079272;28;20214;-31
2020/12/04 03:08:51;;;;;;;11.80;10.65;;;7.10;99.90;;;;;;5089295;28;20185;-31
2020/12/04 03:11:22;;;;;;;11.73;10.55;;;7.00;99.90;;;;;;5089626;28;20268;-34
2020/12/04 03:13:52;;;;;;;12.88;10.95;;;6.90;99.90;;;;;;5071254;28;20189;-29
2020/12/04 03:16:22;;;;;;;13.05;10.50;;;6.90;99.90;;;;;;5078321;28;20209;-32
2020/12/04 03:18:53;;;;;;;11.68;10.15;;;6.90;99.90;;;;;;5067952;28;20208;-32
2020/12/04 03:21:24;;;;;;;14.25;11.40;;;6.90;99.90;;;;;;5083000;28;20216;-32
2020/12/04 03:23:55;;;;;;;15.73;14.18;;;6.80;99.90;;;;;;5072133;28;20621;-34
2020/12/04 03:26:25;;;;;;;15.32;13.63;;;6.80;99.90;;;;;;5082827;28;21033;-34
2020/12/04 03:28:56;;;;;;;17.05;13.48;;;6.70;99.90;;;;;;5070030;28;20230;-34
2020/12/04 03:31:26;;;;;;;18.42;13.23;;;6.60;99.90;;;;;;5059261;28;20197;-35
2020/12/04 03:33:57;;;;;;;15.60;12.63;;;6.50;99.90;;;;;;5074718;28;20282;-34
2020/12/04 03:36:28;;;;;;;13.38;12.05;;;6.40;99.90;;;;;;5082989;28;20193;-34
2020/12/04 03:38:58;;;;;;;14.05;12.35;;;6.30;99.90;;;;;;5079893;28;20262;-36
2020/12/04 03:41:28;;;;;;;14.07;12.10;;;6.40;99.90;;;;;;5089519;28;20204;-36
2020/12/04 03:43:58;;;;;;;13.23;11.45;;;6.30;99.90;;;;;;5072809;28;20201;-36
2020/12/04 03:46:28;;;;;;;18.40;13.90;;;6.30;99.90;;;;;;5068491;28;20231;-35
2020/12/04 03:48:59;;;;;;;15.98;13.32;;;6.20;99.90;;;;;;5060470;28;20201;-34
2020/12/04 03:51:30;;;;;;;14.70;12.75;;;6.20;99.90;;;;;;5068967;28;20210;-33
2020/12/04 03:54:00;;;;;;;13.32;11.95;;;6.00;99.90;;;;;;5068330;28;20545;-34
2020/12/04 03:56:30;;;;;;;12.82;11.50;;;6.00;99.90;;;;;;5068766;28;20252;-33
2020/12/04 03:59:01;;;;;;;13.23;12.13;;;6.00;99.90;;;;;;5065201;28;20937;-32
2020/12/04 04:01:31;;;;;;;13.90;12.40;;;6.10;99.90;;;;;;5079360;28;20220;-36
2020/12/04 04:04:02;;;;;;;14.75;12.75;;;6.10;99.90;;;;;;5086482;28;20185;-36
2020/12/04 04:06:33;;;;;;;13.35;11.93;;;6.00;99.90;;;;;;5073911;28;20254;-35
2020/12/04 04:09:03;;;;;;;17.00;15.40;;;6.00;99.90;;;;;;5080029;28;20189;-33
2020/12/04 04:11:33;;;;;;;18.80;16.90;;;6.00;99.90;;;;;;5074982;28;20217;-36
2020/12/04 04:14:04;;;;;;;19.25;17.27;;;5.90;99.90;;;;;;5070957;28;20201;-32
2020/12/04 04:16:34;;;;;;;19.83;17.83;;;5.80;99.90;;;;;;5080319;28;20246;-35
2020/12/04 04:19:04;;;;;;;41.08;31.20;;;5.70;99.90;;;;;;5085151;28;20315;-34
2020/12/04 04:21:39;;;;;;;23.92;21.40;;;5.70;99.90;;;;;;5075473;28;20319;-37
2020/12/04 04:24:09;;;;;;;21.88;19.67;;;5.60;99.90;;;;;;5058273;28;20270;-32
2020/12/04 04:26:39;;;;;;;23.17;20.38;;;5.70;99.90;;;;;;5074938;28;20197;-33
2020/12/04 04:29:09;;;;;;;26.45;22.85;;;5.60;99.90;;;;;;5065908;28;20778;-36
2020/12/04 04:31:40;;;;;;;22.45;20.17;;;5.60;99.90;;;;;;5082962;28;20216;-36
2020/12/04 04:34:10;;;;;;;24.40;20.75;;;5.60;99.90;;;;;;5080627;28;20204;-34
2020/12/04 04:36:42;;;;;;;20.63;18.50;;;5.50;99.90;;;;;;5074686;28;20641;-34
2020/12/04 04:39:13;;;;;;;20.45;16.92;;;5.50;99.90;;;;;;5060831;28;20664;-32
2020/12/04 04:41:43;;;;;;;17.85;15.95;;;5.60;99.90;;;;;;5088389;28;20644;-33
2020/12/04 04:44:14;;;;;;;17.35;14.02;;;5.60;99.90;;;;;;5076529;28;20320;-35
2020/12/04 04:46:50;;;;;;;15.25;12.98;;;5.70;99.90;;;;;;5060078;28;20243;-34
2020/12/04 04:49:28;;;;;;;16.10;13.88;;;5.70;99.90;;;;;;5057166;28;20251;-35
2020/12/04 04:51:59;;;;;;;12.73;10.60;;;5.70;99.90;;;;;;5076491;28;20607;-36
2020/12/04 04:54:31;;;;;;;12.32;10.30;;;5.70;99.90;;;;;;5081251;28;20196;-36
2020/12/04 04:57:02;;;;;;;10.70;9.60;;;5.80;99.90;;;;;;5090596;28;20246;-31
2020/12/04 04:59:32;;;;;;;16.17;11.98;;;6.00;99.90;;;;;;5076267;28;20535;-32
2020/12/04 05:02:03;;;;;;;12.35;11.05;;;6.00;99.90;;;;;;5086381;28;20326;-33
2020/12/04 05:04:54;;;;;;;16.25;12.65;;;5.80;99.90;;;;;;5083231;28;20640;-36
2020/12/04 05:07:33;;;;;;;14.77;13.18;;;5.80;99.90;;;;;;5072807;28;20190;-31
2020/12/04 05:10:13;;;;;;;15.07;13.68;;;5.60;99.90;;;;;;5064003;28;20254;-36
2020/12/04 05:12:44;;;;;;;16.40;12.93;;;5.50;99.90;;;;;;5075612;28;20187;-35
2020/12/04 05:15:22;;;;;;;13.93;12.52;;;5.70;99.90;;;;;;5057592;28;20190;-33
2020/12/04 05:18:10;;;;;;;13.77;12.43;;;5.70;99.90;;;;;;5071709;28;20539;-35
2020/12/04 05:20:43;;;;;;;14.00;12.70;;;5.60;99.90;;;;;;5052565;28;20222;-33
2020/12/04 05:23:14;;;;;;;14.73;13.13;;;5.50;99.90;;;;;;5057360;28;20194;-33
2020/12/04 05:25:47;;;;;;;15.10;13.70;;;5.50;99.90;;;;;;5075819;28;20204;-35
2020/12/04 05:28:18;;;;;;;15.05;13.48;;;5.50;99.90;;;;;;5081989;28;20208;-36
2020/12/04 05:30:50;;;;;;;16.73;14.70;;;5.40;99.90;;;;;;5091748;28;20189;-35
2020/12/04 05:33:20;;;;;;;16.70;14.93;;;5.30;99.90;;;;;;5080290;28;20193;-32
2020/12/04 05:35:53;;;;;;;16.92;15.10;;;5.40;99.90;;;;;;5088245;28;20204;-36
2020/12/04 05:38:24;;;;;;;17.08;15.30;;;5.40;99.90;;;;;;5062293;28;20214;-31
2020/12/04 05:41:05;;;;;;;20.55;15.60;;;5.30;99.90;;;;;;5068917;28;20220;-34
2020/12/04 05:43:37;;;;;;;17.90;16.02;;;5.20;99.90;;;;;;5071785;28;20315;-34
2020/12/04 05:46:17;;;;;;;16.70;14.98;;;5.20;99.90;;;;;;5071829;28;20508;-37
2020/12/04 05:48:58;;;;;;;17.65;15.32;;;5.10;99.90;;;;;;5078049;28;20211;-35
2020/12/04 05:51:29;;;;;;;17.67;15.88;;;5.10;99.90;;;;;;5078050;28;20247;-40
2020/12/04 05:54:01;;;;;;;17.77;15.52;;;5.00;99.90;;;;;;5075269;28;20197;-34
2020/12/04 05:56:34;;;;;;;17.13;15.30;;;5.00;99.90;;;;;;5071557;28;20197;-35
2020/12/04 05:59:06;;;;;;;16.90;15.25;;;5.00;99.90;;;;;;5072160;28;20248;-37
2020/12/04 06:01:37;;;;;;;18.75;15.65;;;4.90;99.90;;;;;;5083538;28;20568;-30
2020/12/04 06:04:07;;;;;;;17.73;15.82;;;4.90;99.90;;;;;;5075760;28;20202;-35
2020/12/04 06:06:38;;;;;;;20.08;18.13;;;4.90;99.90;;;;;;5087989;28;20549;-31
2020/12/04 06:09:09;;;;;;;18.67;16.88;;;4.80;99.90;;;;;;5071502;28;20643;-36
2020/12/04 06:11:42;;;;;;;17.00;15.20;;;4.80;99.90;;;;;;5086672;28;20612;-34
2020/12/04 06:14:16;;;;;;;19.13;16.42;;;4.80;99.90;;;;;;5073918;28;20216;-33
2020/12/04 06:17:13;;;;;;;18.83;16.27;;;4.70;99.90;;;;;;5091890;28;20521;-34
2020/12/04 06:19:44;;;;;;;18.38;16.67;;;4.70;99.90;;;;;;5091322;28;20223;-35
2020/12/04 06:22:15;;;;;;;18.13;16.33;;;4.70;99.90;;;;;;5077482;28;20182;-37
2020/12/04 06:25:10;;;;;;;17.33;15.63;;;4.70;99.90;;;;;;5076202;28;20261;-35
2020/12/04 06:27:43;;;;;;;16.48;14.88;;;4.60;99.90;;;;;;5072614;28;20674;-35
2020/12/04 06:30:14;;;;;;;17.10;15.38;;;4.60;99.90;;;;;;5091087;28;20214;-32
2020/12/04 06:32:45;;;;;;;16.48;14.82;;;4.50;99.90;;;;;;5083012;28;20196;-38
2020/12/04 06:35:16;;;;;;;16.98;14.90;;;4.40;99.90;;;;;;5069579;28;20578;-38
2020/12/04 06:37:47;;;;;;;17.10;15.40;;;4.50;99.90;;;;;;5063407;28;20191;-38
2020/12/04 06:40:30;;;;;;;16.92;15.32;;;4.40;99.90;;;;;;5064808;28;20266;-33
2020/12/04 06:43:01;;;;;;;15.77;14.18;;;4.30;99.90;;;;;;5091072;28;20297;-33
2020/12/04 06:45:47;;;;;;;16.90;14.35;;;4.40;99.90;;;;;;5091070;28;20192;-37
2020/12/04 06:48:18;;;;;;;16.75;15.05;;;4.30;99.90;;;;;;5053827;28;20645;-38
2020/12/04 06:50:50;;;;;;;15.95;14.35;;;4.40;99.90;;;;;;5079120;28;20193;-35
2020/12/04 06:53:20;;;;;;;16.00;14.30;;;4.40;99.90;;;;;;5071146;28;20190;-32
2020/12/04 06:55:51;;;;;;;15.93;14.38;;;4.30;99.90;;;;;;5083725;28;20200;-34
2020/12/04 06:58:22;;;;;;;15.90;14.40;;;4.40;99.90;;;;;;5052648;28;20190;-32
2020/12/04 07:00:57;;;;;;;16.45;14.70;;;4.30;99.90;;;;;;5068089;28;20279;-31
2020/12/04 07:03:28;;;;;;;20.58;14.63;;;4.30;99.90;;;;;;5067316;28;20262;-36
2020/12/04 07:05:58;;;;;;;15.57;14.05;;;4.30;99.90;;;;;;5073876;28;20275;-36
2020/12/04 07:08:28;;;;;;;15.65;14.05;;;4.20;99.90;;;;;;5064277;28;20541;-32
2020/12/04 07:11:01;;;;;;;14.13;12.82;;;4.20;99.90;;;;;;5060900;28;20615;-35
2020/12/04 07:13:31;;;;;;;14.38;12.88;;;4.20;99.90;;;;;;5080295;28;20189;-38
2020/12/04 07:16:01;;;;;;;14.25;12.88;;;4.20;99.90;;;;;;5069457;28;20266;-32
2020/12/04 07:18:32;;;;;;;16.00;14.13;;;4.20;99.90;;;;;;5067830;28;20557;-36
2020/12/04 07:21:02;;;;;;;14.65;13.00;;;4.30;99.90;;;;;;5070802;28;20627;-33
2020/12/04 07:23:32;;;;;;;15.75;13.43;;;4.30;99.90;;;;;;5059526;28;20307;-39
2020/12/04 07:26:05;;;;;;;15.57;14.05;;;4.30;99.90;;;;;;5085973;28;20338;-35
2020/12/04 07:28:36;;;;;;;16.75;15.05;;;4.20;99.90;;;;;;5071990;28;20297;-33
2020/12/04 07:31:14;;;;;;;15.68;13.90;;;4.20;99.90;;;;;;5062981;28;20196;-37
2020/12/04 07:33:56;;;;;;;16.60;14.95;;;4.10;99.90;;;;;;5069156;28;20181;-36
2020/12/04 07:36:27;;;;;;;14.85;13.35;;;4.10;99.90;;;;;;5059542;28;20632;-38
2020/12/04 07:38:58;;;;;;;15.85;13.13;;;4.10;99.90;;;;;;5080331;28;20672;-34
2020/12/04 07:41:36;;;;;;;14.35;12.90;;;4.00;99.90;;;;;;5070213;28;20209;-34
2020/12/04 07:44:07;;;;;;;14.55;13.10;;;4.00;99.90;;;;;;5069641;28;20193;-36
2020/12/04 07:46:38;;;;;;;14.30;12.88;;;4.00;99.90;;;;;;5084692;28;20239;-37
2020/12/04 07:49:22;;;;;;;15.15;13.57;;;4.00;99.90;;;;;;5069832;28;20616;-37
2020/12/04 07:51:53;;;;;;;13.68;12.38;;;3.90;99.90;;;;;;5068401;28;20616;-38
2020/12/04 07:54:24;;;;;;;13.45;12.05;;;3.90;99.90;;;;;;5068692;28;20193;-34
2020/12/04 07:56:57;;;;;;;14.23;11.98;;;3.90;99.90;;;;;;5076314;28;20215;-38
2020/12/04 07:59:29;;;;;;;15.00;12.77;;;3.80;99.90;;;;;;5075994;28;20262;-36
2020/12/04 08:02:01;;;;;;;14.48;12.18;;;3.80;99.90;;;;;;5057950;28;20595;-34
2020/12/04 08:04:34;;;;;;;14.48;11.80;;;3.70;99.90;;;;;;5060619;28;20239;-37
2020/12/04 08:07:09;;;;;;;13.57;12.18;;;3.70;99.90;;;;;;5069082;28;20197;-38
2020/12/04 08:09:41;;;;;;;14.48;12.60;;;3.80;99.90;;;;;;5066150;28;20196;-38
2020/12/04 08:12:18;;;;;;;13.77;12.38;;;3.70;99.90;;;;;;5084400;28;20201;-36
2020/12/04 08:14:54;;;;;;;13.55;12.15;;;3.70;99.90;;;;;;5069342;28;20192;-39
2020/12/04 08:17:26;;;;;;;14.93;11.98;;;3.70;99.90;;;;;;5068862;28;20193;-36
2020/12/04 08:19:59;;;;;;;13.20;11.80;;;3.60;99.90;;;;;;5068985;28;20329;-34
2020/12/04 08:22:30;;;;;;;12.55;11.35;;;3.60;99.90;;;;;;5054252;28;20189;-34
2020/12/04 08:25:05;;;;;;;12.57;11.27;;;3.50;99.90;;;;;;5065503;28;20211;-35
2020/12/04 08:27:41;;;;;;;14.48;12.00;;;3.40;99.90;;;;;;5069800;28;20207;-34
2020/12/04 08:30:15;;;;;;;12.13;10.77;;;3.40;99.90;;;;;;5068624;28;20189;-34
2020/12/04 08:32:46;;;;;;;14.15;11.15;;;3.40;99.90;;;;;;5076774;28;20199;-35
2020/12/04 08:35:18;;;;;;;12.55;11.30;;;3.40;99.90;;;;;;5075090;28;20243;-35
2020/12/04 08:37:50;;;;;;;12.80;10.80;;;3.40;99.90;;;;;;5071477;28;20193;-34
2020/12/04 08:40:28;;;;;;;13.60;11.77;;;3.40;99.90;;;;;;5067765;28;20215;-37
2020/12/04 08:43:12;;;;;;;13.23;11.82;;;3.40;99.90;;;;;;5081132;28;20262;-38
2020/12/04 08:45:44;;;;;;;12.70;11.50;;;3.40;99.90;;;;;;5088965;28;20197;-35
2020/12/04 08:48:16;;;;;;;12.43;11.30;;;3.40;99.90;;;;;;5086200;28;20200;-38
2020/12/04 08:50:48;;;;;;;14.07;11.98;;;3.30;99.90;;;;;;5049286;28;20193;-33
2020/12/04 08:53:19;;;;;;;12.93;11.48;;;3.20;99.90;;;;;;5062059;28;20259;-33
2020/12/04 08:55:50;;;;;;;12.93;11.63;;;3.20;99.90;;;;;;5069748;28;20189;-31
2020/12/04 08:58:23;;;;;;;12.95;11.45;;;3.10;99.90;;;;;;5068419;28;20549;-34
2020/12/04 09:00:54;;;;;;;11.82;10.63;;;3.00;99.90;;;;;;5057022;28;20774;-35
2020/12/04 09:03:26;;;;;;;13.38;12.02;;;3.00;99.90;;;;;;5060246;28;20262;-34
2020/12/04 09:05:57;;;;;;;12.32;11.15;;;3.00;99.90;;;;;;5085902;28;20539;-35
2020/12/04 09:08:27;;;;;;;12.90;11.60;;;3.00;99.90;;;;;;5070452;28;20200;-33
2020/12/04 09:10:57;;;;;;;13.07;11.45;;;3.00;99.90;;;;;;5057945;28;20274;-33
2020/12/04 09:13:28;;;;;;;14.13;12.73;;;3.00;99.90;;;;;;5082171;28;20201;-33
2020/12/04 09:15:58;;;;;;;16.33;14.27;;;3.00;99.90;;;;;;5071531;28;20255;-36
2020/12/04 09:18:29;;;;;;;20.30;15.27;;;2.90;99.90;;;;;;5074389;28;20192;-32
2020/12/04 09:20:59;;;;;;;18.65;14.27;;;2.90;99.90;;;;;;5075670;28;20296;-35
2020/12/04 09:23:31;;;;;;;17.05;13.43;;;3.00;99.90;;;;;;5063247;28;20201;-34
2020/12/04 09:26:01;;;;;;;13.85;12.27;;;2.90;99.90;;;;;;5072294;28;20185;-30
2020/12/04 09:28:32;;;;;;;14.55;13.00;;;2.90;99.90;;;;;;5071053;28;20606;-36
2020/12/04 09:31:02;;;;;;;14.02;12.20;;;2.80;99.90;;;;;;5059420;28;20197;-33
2020/12/04 09:33:33;;;;;;;12.38;10.90;;;2.80;99.90;;;;;;5082299;28;20186;-32
2020/12/04 09:36:03;;;;;;;14.23;12.27;;;2.80;99.90;;;;;;5091703;28;20785;-34
2020/12/04 09:38:33;;;;;;;12.57;11.38;;;2.80;99.90;;;;;;5070998;28;20269;-38
2020/12/04 09:41:04;;;;;;;11.80;10.63;;;2.80;99.90;;;;;;5085226;28;20224;-35
2020/12/04 09:43:35;;;;;;;12.55;11.00;;;2.80;99.90;;;;;;5091734;28;20307;-35
2020/12/04 09:46:05;;;;;;;12.50;11.30;;;2.80;99.90;;;;;;5092192;28;20193;-35
2020/12/04 09:48:36;;;;;;;16.88;12.80;;;2.80;99.90;;;;;;5082205;28;20201;-33
2020/12/04 09:51:06;;;;;;;12.65;10.60;;;2.80;99.90;;;;;;5077270;28;20201;-36
2020/12/04 09:53:36;;;;;;;12.13;10.85;;;2.80;99.90;;;;;;5078610;28;20296;-36
2020/12/04 09:56:06;;;;;;;13.18;11.38;;;2.80;99.90;;;;;;5091579;28;20205;-34
2020/12/04 09:58:37;;;;;;;12.68;10.98;;;2.70;99.90;;;;;;5071000;28;20642;-38
2020/12/04 10:01:08;;;;;;;11.00;9.95;;;2.70;99.90;;;;;;5061706;28;20426;-33
2020/12/04 10:03:38;;;;;;;12.77;11.57;;;2.60;99.90;;;;;;5067131;28;20602;-35
2020/12/04 10:06:08;;;;;;;11.52;10.18;;;2.70;99.90;;;;;;5066943;28;20293;-35
2020/12/04 10:08:38;;;;;;;12.55;11.23;;;2.60;99.90;;;;;;5084105;28;20202;-37
2020/12/04 10:11:09;;;;;;;13.05;11.85;;;2.60;99.90;;;;;;5071956;28;20647;-36
2020/12/04 10:13:40;;;;;;;12.75;11.35;;;2.60;99.90;;;;;;5071243;28;20522;-36
2020/12/04 10:16:11;;;;;;;12.70;11.50;;;2.50;99.90;;;;;;5070412;28;20272;-34
2020/12/04 10:18:41;;;;;;;11.48;10.20;;;2.50;99.90;;;;;;5076921;28;20609;-35
2020/12/04 10:21:11;;;;;;;11.82;10.45;;;2.50;99.90;;;;;;5081229;28;20591;-37
2020/12/04 10:23:41;;;;;;;12.90;11.65;;;2.50;99.90;;;;;;5065627;28;20272;-35
2020/12/04 10:26:11;;;;;;;11.98;10.88;;;2.60;99.90;;;;;;5071063;28;20233;-35
2020/12/04 10:28:42;;;;;;;11.32;10.23;;;2.60;99.90;;;;;;5070412;28;20209;-31
2020/12/04 10:31:13;;;;;;;12.30;10.45;;;2.60;99.90;;;;;;5078076;28;20275;-33
2020/12/04 10:33:43;;;;;;;11.23;10.10;;;2.50;99.90;;;;;;5066799;28;20267;-37
2020/12/04 10:36:14;;;;;;;10.88;9.80;;;2.50;99.90;;;;;;5072022;28;20189;-35
2020/12/04 10:38:44;;;;;;;11.63;10.40;;;2.50;99.90;;;;;;5070375;28;20736;-32
2020/12/04 10:41:14;;;;;;;11.02;9.93;;;2.60;99.90;;;;;;5057407;28;20252;-32
2020/12/04 10:43:45;;;;;;;12.40;10.70;;;2.50;99.90;;;;;;5069271;28;20294;-32
2020/12/04 10:46:15;;;;;;;11.13;10.10;;;2.50;99.90;;;;;;5084955;28;20193;-32
2020/12/04 10:48:46;;;;;;;11.70;10.50;;;2.60;99.90;;;;;;5068597;28;20304;-31
2020/12/04 10:51:19;;;;;;;10.70;9.60;;;2.60;99.90;;;;;;5067710;28;20190;-35
2020/12/04 10:53:49;;;;;;;11.98;10.88;;;2.60;99.90;;;;;;5069899;28;20186;-36
2020/12/04 10:56:20;;;;;;;13.38;10.63;;;2.50;99.90;;;;;;5082726;28;20568;-34
2020/12/04 10:58:51;;;;;;;10.50;9.40;;;2.60;99.90;;;;;;5077195;28;20281;-37
2020/12/04 11:01:30;;;;;;;12.15;10.50;;;2.50;99.90;;;;;;5070889;28;20221;-32
2020/12/04 11:06:48;;;;;;;11.27;10.07;;;2.50;99.90;;;;;;5064432;28;20190;-31
2020/12/04 11:09:18;;;;;;;12.60;10.60;;;2.50;99.90;;;;;;5060724;28;20699;-32
2020/12/04 11:11:49;;;;;;;13.18;10.50;;;2.50;99.90;;;;;;5062151;28;20237;-36
2020/12/04 11:14:20;;;;;;;10.77;9.73;;;2.50;99.90;;;;;;5074562;28;20194;-36
2020/12/04 11:16:50;;;;;;;10.65;9.60;;;2.40;99.90;;;;;;5075576;28;20246;-35
2020/12/04 11:19:21;;;;;;;15.35;10.80;;;2.40;99.90;;;;;;5081101;28;20201;-35
2020/12/04 11:21:51;;;;;;;12.90;11.10;;;2.40;99.90;;;;;;5069481;28;20334;-36
2020/12/04 11:24:21;;;;;;;11.30;10.10;;;2.40;99.90;;;;;;5071235;28;20204;-33
2020/12/04 11:26:59;;;;;;;12.30;11.10;;;2.40;99.90;;;;;;5076581;28;20192;-33
2020/12/04 11:29:31;;;;;;;11.45;10.35;;;2.30;99.90;;;;;;5089085;28;20216;-35
2020/12/04 11:32:01;;;;;;;11.23;10.15;;;2.30;99.90;;;;;;5078120;28;20205;-35
2020/12/04 11:34:31;;;;;;;11.45;10.35;;;2.30;99.90;;;;;;5085161;28;20204;-35
2020/12/04 11:37:02;;;;;;;12.13;10.82;;;2.30;99.90;;;;;;5086431;28;20204;-33
2020/12/04 11:39:34;;;;;;;12.38;10.75;;;2.20;99.90;;;;;;5070398;28;20193;-34
2020/12/04 11:42:04;;;;;;;11.85;10.48;;;2.20;99.90;;;;;;5077203;28;20244;-33
2020/12/04 11:44:36;;;;;;;11.30;10.07;;;2.20;99.90;;;;;;5084517;28;20215;-37
2020/12/04 11:47:06;;;;;;;12.32;9.20;;;2.10;99.90;;;;;;5050930;28;20205;-38
2020/12/04 11:49:36;;;;;;;12.07;10.82;;;2.10;99.90;;;;;;5059844;28;20221;-37
2020/12/04 11:52:09;;;;;;;11.07;9.98;;;2.00;99.90;;;;;;5081617;28;20287;-33
2020/12/04 11:54:40;;;;;;;12.25;10.82;;;2.10;99.90;;;;;;5069854;28;20222;-31
2020/12/04 11:57:10;;;;;;;10.75;9.68;;;2.10;99.90;;;;;;5080249;28;20197;-38
2020/12/04 11:59:41;;;;;;;11.57;10.35;;;2.10;99.90;;;;;;5074563;28;20346;-36
2020/12/04 12:02:11;;;;;;;12.27;11.05;;;2.10;99.90;;;;;;5069297;28;20319;-36
2020/12/04 12:04:42;;;;;;;11.95;10.75;;;2.10;99.90;;;;;;5074760;28;20605;-36
2020/12/04 12:07:12;;;;;;;14.88;10.55;;;2.00;99.90;;;;;;5078868;28;20202;-35
2020/12/04 12:09:42;;;;;;;10.80;9.75;;;2.00;99.90;;;;;;5069576;28;20254;-38
2020/12/04 12:12:12;;;;;;;11.35;10.05;;;1.90;99.90;;;;;;5054534;28;20198;-35
2020/12/04 12:14:44;;;;;;;13.85;11.55;;;1.90;99.90;;;;;;5067611;28;20660;-30
2020/12/04 12:17:14;;;;;;;13.82;11.15;;;1.90;99.90;;;;;;5078566;28;20603;-35
2020/12/04 12:19:45;;;;;;;11.68;10.25;;;1.90;99.90;;;;;;5072382;28;20189;-32
2020/12/04 12:22:15;;;;;;;14.13;10.35;;;1.80;99.90;;;;;;5089682;28;20279;-33
2020/12/04 12:24:47;;;;;;;11.75;9.82;;;1.70;99.90;;;;;;5069498;28;20201;-32
2020/12/04 12:27:17;;;;;;;11.38;10.27;;;1.80;99.90;;;;;;5082640;28;20193;-33
2020/12/04 12:29:49;;;;;;;10.95;9.85;;;1.80;99.90;;;;;;5073855;28;20199;-34
2020/12/04 12:32:19;;;;;;;14.23;10.80;;;1.80;99.90;;;;;;5080495;28;20205;-35
2020/12/04 12:35:05;;;;;;;17.77;12.00;;;1.80;99.90;;;;;;5081919;28;20194;-33
2020/12/04 12:37:35;;;;;;;12.10;10.85;;;1.70;99.90;;;;;;5051962;28;20194;-35
2020/12/04 12:40:06;;;;;;;11.75;10.57;;;1.70;99.90;;;;;;5075583;28;20197;-35
2020/12/04 12:42:37;;;;;;;14.48;11.88;;;1.70;99.90;;;;;;5068397;28;20720;-34
2020/12/04 12:45:09;;;;;;;12.77;11.48;;;1.60;99.90;;;;;;5083432;28;20208;-36
2020/12/04 12:47:39;;;;;;;13.27;11.80;;;1.60;99.90;;;;;;5076669;28;20232;-37
2020/12/04 12:50:09;;;;;;;16.65;11.45;;;1.60;99.90;;;;;;5065197;28;20311;-36
2020/12/04 12:52:40;;;;;;;12.13;10.85;;;1.60;99.90;;;;;;5080225;28;20262;-37
2020/12/04 12:55:10;;;;;;;12.75;10.93;;;1.60;99.90;;;;;;5081790;28;20192;-34
2020/12/04 12:57:40;;;;;;;12.27;10.98;;;1.50;99.90;;;;;;5088411;28;20231;-38
2020/12/04 13:00:11;;;;;;;12.55;11.07;;;1.50;99.90;;;;;;5064493;28;20520;-35
2020/12/04 13:02:41;;;;;;;12.75;10.32;;;1.60;99.90;;;;;;5073017;28;20213;-34
2020/12/04 13:07:56;;;;;;;21.70;11.57;;;1.60;99.90;;;;;;5060464;28;20192;-37
2020/12/04 13:10:26;;;;;;;11.90;10.38;;;1.70;99.90;;;;;;5085037;28;20287;-34